sensor_id;sensor_type;location;lat;lon;timestamp;P1;durP1;ratioP1;P2;durP2;ratioP2
42006;SDS011;27696;42.704;23.304;2023-06-05T00:01:23;13.85;;;12.38;;
42006;SDS011;27696;42.704;23.304;2023-06-05T00:03:48;15.15;;;12.95;;
42006;SDS011;27696;42.704;23.304;2023-06-05T00:06:14;18.15;;;11.80;;
42006;SDS011;27696;42.704;23.304;2023-06-05T00:08:40;13.35;;;11.90;;
42006;SDS011;27696;42.704;23.304;2023-06-05T00:11:05;13.77;;;12.38;;
42006;SDS011;27696;42.704;23.304;2023-06-05T00:13:30;12.85;;;11.63;;
42006;SDS011;27696;42.704;23.304;2023-06-05T00:15:56;14.27;;;11.38;;
42006;SDS011;27696;42.704;23.304;2023-06-05T00:18:22;12.10;;;11.00;;
42006;SDS011;27696;42.704;23.304;2023-06-05T00:20:48;12.40;;;11.20;;
42006;SDS011;27696;42.704;23.304;2023-06-05T00:23:13;11.95;;;10.75;;
42006;SDS011;27696;42.704;23.304;2023-06-05T00:25:38;13.82;;;11.23;;
42006;SDS011;27696;42.704;23.304;2023-06-05T00:28:04;13.02;;;11.68;;
42006;SDS011;27696;42.704;23.304;2023-06-05T00:30:29;14.65;;;12.48;;
42006;SDS011;27696;42.704;23.304;2023-06-05T00:32:55;17.25;;;11.68;;
42006;SDS011;27696;42.704;23.304;2023-06-05T00:35:21;15.60;;;12.25;;
42006;SDS011;27696;42.704;23.304;2023-06-05T00:37:46;13.55;;;11.65;;
42006;SDS011;27696;42.704;23.304;2023-06-05T00:40:12;16.52;;;12.50;;
42006;SDS011;27696;42.704;23.304;2023-06-05T00:42:38;13.40;;;11.98;;
42006;SDS011;27696;42.704;23.304;2023-06-05T00:45:03;18.05;;;12.10;;
42006;SDS011;27696;42.704;23.304;2023-06-05T00:47:29;14.43;;;12.15;;
42006;SDS011;27696;42.704;23.304;2023-06-05T00:49:54;14.90;;;12.50;;
42006;SDS011;27696;42.704;23.304;2023-06-05T00:52:20;14.45;;;12.98;;
42006;SDS011;27696;42.704;23.304;2023-06-05T00:54:46;14.90;;;10.50;;
42006;SDS011;27696;42.704;23.304;2023-06-05T00:57:11;13.82;;;11.50;;
42006;SDS011;27696;42.704;23.304;2023-06-05T00:59:37;15.23;;;10.45;;
42006;SDS011;27696;42.704;23.304;2023-06-05T01:02:02;12.63;;;10.40;;
42006;SDS011;27696;42.704;23.304;2023-06-05T01:04:28;12.35;;;10.52;;
42006;SDS011;27696;42.704;23.304;2023-06-05T01:06:54;12.40;;;10.60;;
42006;SDS011;27696;42.704;23.304;2023-06-05T01:09:22;13.40;;;10.40;;
42006;SDS011;27696;42.704;23.304;2023-06-05T01:14:36;13.50;;;11.23;;
42006;SDS011;27696;42.704;23.304;2023-06-05T01:17:05;13.30;;;11.07;;
42006;SDS011;27696;42.704;23.304;2023-06-05T01:19:33;14.60;;;10.85;;
42006;SDS011;27696;42.704;23.304;2023-06-05T01:21:59;14.50;;;12.38;;
42006;SDS011;27696;42.704;23.304;2023-06-05T01:24:24;15.73;;;12.77;;
42006;SDS011;27696;42.704;23.304;2023-06-05T01:29:28;16.42;;;13.05;;
42006;SDS011;27696;42.704;23.304;2023-06-05T01:32:09;21.95;;;13.93;;
42006;SDS011;27696;42.704;23.304;2023-06-05T01:34:41;16.52;;;14.80;;
42006;SDS011;27696;42.704;23.304;2023-06-05T01:37:08;14.70;;;13.15;;
42006;SDS011;27696;42.704;23.304;2023-06-05T01:39:38;16.98;;;14.15;;
42006;SDS011;27696;42.704;23.304;2023-06-05T01:42:05;15.30;;;13.57;;
42006;SDS011;27696;42.704;23.304;2023-06-05T01:44:30;16.48;;;13.68;;
42006;SDS011;27696;42.704;23.304;2023-06-05T01:46:56;15.13;;;12.93;;
42006;SDS011;27696;42.704;23.304;2023-06-05T01:49:22;19.45;;;13.40;;
42006;SDS011;27696;42.704;23.304;2023-06-05T01:51:47;15.85;;;13.02;;
42006;SDS011;27696;42.704;23.304;2023-06-05T01:54:13;17.52;;;12.63;;
42006;SDS011;27696;42.704;23.304;2023-06-05T01:56:40;16.25;;;12.57;;
42006;SDS011;27696;42.704;23.304;2023-06-05T01:59:07;14.25;;;12.93;;
42006;SDS011;27696;42.704;23.304;2023-06-05T02:01:33;16.40;;;13.20;;
42006;SDS011;27696;42.704;23.304;2023-06-05T02:03:59;14.32;;;12.82;;
42006;SDS011;27696;42.704;23.304;2023-06-05T02:06:31;17.05;;;13.40;;
42006;SDS011;27696;42.704;23.304;2023-06-05T02:09:06;16.95;;;13.07;;
42006;SDS011;27696;42.704;23.304;2023-06-05T02:11:32;17.30;;;14.30;;
42006;SDS011;27696;42.704;23.304;2023-06-05T02:13:57;17.38;;;15.48;;
42006;SDS011;27696;42.704;23.304;2023-06-05T02:16:25;18.13;;;15.05;;
42006;SDS011;27696;42.704;23.304;2023-06-05T02:18:50;21.05;;;15.05;;
42006;SDS011;27696;42.704;23.304;2023-06-05T02:21:16;17.83;;;15.05;;
42006;SDS011;27696;42.704;23.304;2023-06-05T02:23:41;18.85;;;15.88;;
42006;SDS011;27696;42.704;23.304;2023-06-05T02:26:08;18.70;;;14.68;;
42006;SDS011;27696;42.704;23.304;2023-06-05T02:28:34;19.80;;;15.77;;
42006;SDS011;27696;42.704;23.304;2023-06-05T02:31:00;20.58;;;16.67;;
42006;SDS011;27696;42.704;23.304;2023-06-05T02:33:26;18.77;;;16.63;;
42006;SDS011;27696;42.704;23.304;2023-06-05T02:35:53;18.80;;;16.85;;
42006;SDS011;27696;42.704;23.304;2023-06-05T02:38:18;18.92;;;16.27;;
42006;SDS011;27696;42.704;23.304;2023-06-05T02:40:44;18.52;;;16.38;;
42006;SDS011;27696;42.704;23.304;2023-06-05T02:43:09;18.83;;;16.35;;
42006;SDS011;27696;42.704;23.304;2023-06-05T02:45:36;18.90;;;16.33;;
42006;SDS011;27696;42.704;23.304;2023-06-05T02:48:01;20.00;;;17.45;;
42006;SDS011;27696;42.704;23.304;2023-06-05T02:50:27;19.77;;;17.67;;
42006;SDS011;27696;42.704;23.304;2023-06-05T02:52:52;19.85;;;17.75;;
42006;SDS011;27696;42.704;23.304;2023-06-05T02:55:18;22.48;;;17.02;;
42006;SDS011;27696;42.704;23.304;2023-06-05T02:57:43;21.38;;;16.55;;
42006;SDS011;27696;42.704;23.304;2023-06-05T03:00:12;19.75;;;16.85;;
42006;SDS011;27696;42.704;23.304;2023-06-05T03:02:42;19.42;;;16.95;;
42006;SDS011;27696;42.704;23.304;2023-06-05T03:05:13;22.52;;;17.13;;
42006;SDS011;27696;42.704;23.304;2023-06-05T03:07:39;20.48;;;17.65;;
42006;SDS011;27696;42.704;23.304;2023-06-05T03:10:05;21.80;;;18.25;;
42006;SDS011;27696;42.704;23.304;2023-06-05T03:12:31;22.88;;;18.70;;
42006;SDS011;27696;42.704;23.304;2023-06-05T03:14:57;25.15;;;19.33;;
42006;SDS011;27696;42.704;23.304;2023-06-05T03:17:22;22.65;;;19.33;;
42006;SDS011;27696;42.704;23.304;2023-06-05T03:19:49;23.15;;;18.70;;
42006;SDS011;27696;42.704;23.304;2023-06-05T03:22:15;23.83;;;19.33;;
42006;SDS011;27696;42.704;23.304;2023-06-05T03:24:42;22.02;;;19.45;;
42006;SDS011;27696;42.704;23.304;2023-06-05T03:27:07;23.73;;;18.75;;
42006;SDS011;27696;42.704;23.304;2023-06-05T03:29:33;27.65;;;20.02;;
42006;SDS011;27696;42.704;23.304;2023-06-05T03:31:58;24.33;;;21.88;;
42006;SDS011;27696;42.704;23.304;2023-06-05T03:34:24;29.13;;;23.42;;
42006;SDS011;27696;42.704;23.304;2023-06-05T03:36:51;24.17;;;20.27;;
42006;SDS011;27696;42.704;23.304;2023-06-05T03:39:17;24.27;;;20.45;;
42006;SDS011;27696;42.704;23.304;2023-06-05T03:41:42;26.55;;;20.27;;
42006;SDS011;27696;42.704;23.304;2023-06-05T03:44:08;25.02;;;20.90;;
42006;SDS011;27696;42.704;23.304;2023-06-05T03:46:34;24.35;;;22.00;;
42006;SDS011;27696;42.704;23.304;2023-06-05T03:49:00;25.15;;;22.58;;
42006;SDS011;27696;42.704;23.304;2023-06-05T03:51:30;24.15;;;20.90;;
42006;SDS011;27696;42.704;23.304;2023-06-05T03:53:56;24.55;;;20.73;;
42006;SDS011;27696;42.704;23.304;2023-06-05T03:56:23;22.42;;;20.13;;
42006;SDS011;27696;42.704;23.304;2023-06-05T03:58:53;28.55;;;20.83;;
42006;SDS011;27696;42.704;23.304;2023-06-05T04:01:19;29.25;;;21.85;;
42006;SDS011;27696;42.704;23.304;2023-06-05T04:03:44;23.25;;;20.90;;
42006;SDS011;27696;42.704;23.304;2023-06-05T04:06:10;25.48;;;21.30;;
42006;SDS011;27696;42.704;23.304;2023-06-05T04:08:35;28.95;;;25.95;;
42006;SDS011;27696;42.704;23.304;2023-06-05T04:11:01;33.60;;;26.00;;
42006;SDS011;27696;42.704;23.304;2023-06-05T04:13:27;38.17;;;24.23;;
42006;SDS011;27696;42.704;23.304;2023-06-05T04:15:52;34.25;;;23.48;;
42006;SDS011;27696;42.704;23.304;2023-06-05T04:18:18;30.83;;;21.67;;
42006;SDS011;27696;42.704;23.304;2023-06-05T04:20:43;26.55;;;23.05;;
42006;SDS011;27696;42.704;23.304;2023-06-05T04:23:09;30.27;;;23.25;;
42006;SDS011;27696;42.704;23.304;2023-06-05T04:25:34;28.85;;;23.15;;
42006;SDS011;27696;42.704;23.304;2023-06-05T04:27:59;25.98;;;22.27;;
42006;SDS011;27696;42.704;23.304;2023-06-05T04:30:25;28.70;;;23.50;;
42006;SDS011;27696;42.704;23.304;2023-06-05T04:32:51;27.05;;;23.00;;
42006;SDS011;27696;42.704;23.304;2023-06-05T04:35:20;24.38;;;21.42;;
42006;SDS011;27696;42.704;23.304;2023-06-05T04:37:46;28.25;;;22.92;;
42006;SDS011;27696;42.704;23.304;2023-06-05T04:40:11;25.77;;;22.67;;
42006;SDS011;27696;42.704;23.304;2023-06-05T04:42:37;26.58;;;22.77;;
42006;SDS011;27696;42.704;23.304;2023-06-05T04:45:03;25.55;;;22.75;;
42006;SDS011;27696;42.704;23.304;2023-06-05T04:47:30;32.03;;;23.02;;
42006;SDS011;27696;42.704;23.304;2023-06-05T04:49:59;26.00;;;22.67;;
42006;SDS011;27696;42.704;23.304;2023-06-05T04:52:28;26.92;;;24.33;;
42006;SDS011;27696;42.704;23.304;2023-06-05T04:54:54;28.30;;;24.10;;
42006;SDS011;27696;42.704;23.304;2023-06-05T04:57:20;25.15;;;22.45;;
42006;SDS011;27696;42.704;23.304;2023-06-05T04:59:45;28.02;;;23.40;;
42006;SDS011;27696;42.704;23.304;2023-06-05T05:02:11;29.80;;;24.05;;
42006;SDS011;27696;42.704;23.304;2023-06-05T05:04:37;29.08;;;24.08;;
42006;SDS011;27696;42.704;23.304;2023-06-05T05:07:02;25.55;;;22.77;;
42006;SDS011;27696;42.704;23.304;2023-06-05T05:09:29;26.13;;;23.48;;
42006;SDS011;27696;42.704;23.304;2023-06-05T05:11:55;31.05;;;25.08;;
42006;SDS011;27696;42.704;23.304;2023-06-05T05:14:21;25.75;;;21.85;;
42006;SDS011;27696;42.704;23.304;2023-06-05T05:16:48;27.55;;;22.95;;
42006;SDS011;27696;42.704;23.304;2023-06-05T05:19:14;25.00;;;22.05;;
42006;SDS011;27696;42.704;23.304;2023-06-05T05:21:40;32.65;;;22.73;;
42006;SDS011;27696;42.704;23.304;2023-06-05T05:24:05;25.33;;;21.95;;
42006;SDS011;27696;42.704;23.304;2023-06-05T05:26:31;30.60;;;22.67;;
42006;SDS011;27696;42.704;23.304;2023-06-05T05:28:57;24.13;;;21.10;;
42006;SDS011;27696;42.704;23.304;2023-06-05T05:31:25;30.95;;;21.65;;
42006;SDS011;27696;42.704;23.304;2023-06-05T05:33:50;22.35;;;19.98;;
42006;SDS011;27696;42.704;23.304;2023-06-05T05:36:16;26.20;;;19.92;;
42006;SDS011;27696;42.704;23.304;2023-06-05T05:38:41;21.00;;;18.83;;
42006;SDS011;27696;42.704;23.304;2023-06-05T05:41:07;23.35;;;20.35;;
42006;SDS011;27696;42.704;23.304;2023-06-05T05:43:32;22.38;;;19.77;;
42006;SDS011;27696;42.704;23.304;2023-06-05T05:45:57;23.52;;;18.45;;
42006;SDS011;27696;42.704;23.304;2023-06-05T05:48:23;21.00;;;18.80;;
42006;SDS011;27696;42.704;23.304;2023-06-05T05:50:48;24.20;;;19.45;;
42006;SDS011;27696;42.704;23.304;2023-06-05T05:53:14;22.85;;;19.70;;
42006;SDS011;27696;42.704;23.304;2023-06-05T05:55:40;25.63;;;20.60;;
42006;SDS011;27696;42.704;23.304;2023-06-05T05:58:05;27.30;;;19.52;;
42006;SDS011;27696;42.704;23.304;2023-06-05T06:00:31;28.83;;;20.88;;
42006;SDS011;27696;42.704;23.304;2023-06-05T06:02:56;27.65;;;19.92;;
42006;SDS011;27696;42.704;23.304;2023-06-05T06:05:22;26.67;;;19.52;;
42006;SDS011;27696;42.704;23.304;2023-06-05T06:07:47;24.73;;;18.63;;
42006;SDS011;27696;42.704;23.304;2023-06-05T06:10:13;21.48;;;19.00;;
42006;SDS011;27696;42.704;23.304;2023-06-05T06:12:39;23.42;;;18.73;;
42006;SDS011;27696;42.704;23.304;2023-06-05T06:15:06;23.23;;;17.98;;
42006;SDS011;27696;42.704;23.304;2023-06-05T06:17:32;23.63;;;18.00;;
42006;SDS011;27696;42.704;23.304;2023-06-05T06:19:58;23.45;;;17.63;;
42006;SDS011;27696;42.704;23.304;2023-06-05T06:22:24;22.02;;;17.65;;
42006;SDS011;27696;42.704;23.304;2023-06-05T06:24:49;19.65;;;17.17;;
42006;SDS011;27696;42.704;23.304;2023-06-05T06:27:17;20.23;;;15.90;;
42006;SDS011;27696;42.704;23.304;2023-06-05T06:29:49;20.25;;;15.70;;
42006;SDS011;27696;42.704;23.304;2023-06-05T06:32:17;20.60;;;15.80;;
42006;SDS011;27696;42.704;23.304;2023-06-05T06:34:43;16.20;;;14.70;;
42006;SDS011;27696;42.704;23.304;2023-06-05T06:37:10;16.73;;;14.60;;
42006;SDS011;27696;42.704;23.304;2023-06-05T06:39:39;15.85;;;14.25;;
42006;SDS011;27696;42.704;23.304;2023-06-05T06:42:05;17.88;;;15.98;;
42006;SDS011;27696;42.704;23.304;2023-06-05T06:44:30;16.90;;;15.30;;
42006;SDS011;27696;42.704;23.304;2023-06-05T06:46:56;18.10;;;15.50;;
42006;SDS011;27696;42.704;23.304;2023-06-05T06:49:21;17.42;;;15.63;;
42006;SDS011;27696;42.704;23.304;2023-06-05T06:51:47;16.98;;;15.35;;
42006;SDS011;27696;42.704;23.304;2023-06-05T06:54:12;20.83;;;16.48;;
42006;SDS011;27696;42.704;23.304;2023-06-05T06:56:38;18.77;;;16.77;;
42006;SDS011;27696;42.704;23.304;2023-06-05T06:59:10;18.00;;;16.27;;
42006;SDS011;27696;42.704;23.304;2023-06-05T07:01:41;18.13;;;16.13;;
42006;SDS011;27696;42.704;23.304;2023-06-05T07:04:11;19.58;;;17.55;;
42006;SDS011;27696;42.704;23.304;2023-06-05T07:06:42;17.13;;;15.20;;
42006;SDS011;27696;42.704;23.304;2023-06-05T07:09:11;18.80;;;16.85;;
42006;SDS011;27696;42.704;23.304;2023-06-05T07:11:37;17.05;;;15.32;;
42006;SDS011;27696;42.704;23.304;2023-06-05T07:14:03;19.70;;;17.70;;
42006;SDS011;27696;42.704;23.304;2023-06-05T07:16:28;19.58;;;17.58;;
42006;SDS011;27696;42.704;23.304;2023-06-05T07:18:53;20.08;;;18.08;;
42006;SDS011;27696;42.704;23.304;2023-06-05T07:21:20;20.63;;;17.95;;
42006;SDS011;27696;42.704;23.304;2023-06-05T07:23:49;21.00;;;18.08;;
42006;SDS011;27696;42.704;23.304;2023-06-05T07:26:18;23.38;;;16.67;;
42006;SDS011;27696;42.704;23.304;2023-06-05T07:28:44;20.65;;;17.48;;
42006;SDS011;27696;42.704;23.304;2023-06-05T07:31:11;20.77;;;17.52;;
42006;SDS011;27696;42.704;23.304;2023-06-05T07:33:38;19.55;;;17.63;;
42006;SDS011;27696;42.704;23.304;2023-06-05T07:36:03;19.65;;;17.58;;
42006;SDS011;27696;42.704;23.304;2023-06-05T07:38:29;19.58;;;17.67;;
42006;SDS011;27696;42.704;23.304;2023-06-05T07:40:54;21.08;;;17.95;;
42006;SDS011;27696;42.704;23.304;2023-06-05T07:43:23;19.83;;;17.70;;
42006;SDS011;27696;42.704;23.304;2023-06-05T07:45:49;20.30;;;18.17;;
42006;SDS011;27696;42.704;23.304;2023-06-05T07:48:14;20.25;;;18.00;;
42006;SDS011;27696;42.704;23.304;2023-06-05T07:50:40;20.25;;;18.20;;
42006;SDS011;27696;42.704;23.304;2023-06-05T07:53:05;25.15;;;17.98;;
42006;SDS011;27696;42.704;23.304;2023-06-05T07:55:31;23.83;;;18.13;;
42006;SDS011;27696;42.704;23.304;2023-06-05T07:57:56;20.35;;;18.15;;
42006;SDS011;27696;42.704;23.304;2023-06-05T08:00:22;20.00;;;17.48;;
42006;SDS011;27696;42.704;23.304;2023-06-05T08:02:48;20.40;;;17.17;;
42006;SDS011;27696;42.704;23.304;2023-06-05T08:05:13;18.83;;;16.95;;
42006;SDS011;27696;42.704;23.304;2023-06-05T08:07:41;19.80;;;17.45;;
42006;SDS011;27696;42.704;23.304;2023-06-05T08:10:07;19.05;;;17.00;;
42006;SDS011;27696;42.704;23.304;2023-06-05T08:12:33;20.23;;;17.00;;
42006;SDS011;27696;42.704;23.304;2023-06-05T08:14:58;18.25;;;16.30;;
42006;SDS011;27696;42.704;23.304;2023-06-05T08:17:24;18.80;;;15.75;;
42006;SDS011;27696;42.704;23.304;2023-06-05T08:19:49;18.67;;;16.73;;
42006;SDS011;27696;42.704;23.304;2023-06-05T08:22:15;21.80;;;16.80;;
42006;SDS011;27696;42.704;23.304;2023-06-05T08:24:40;18.38;;;16.45;;
42006;SDS011;27696;42.704;23.304;2023-06-05T08:27:05;18.13;;;16.15;;
42006;SDS011;27696;42.704;23.304;2023-06-05T08:29:32;18.55;;;16.20;;
42006;SDS011;27696;42.704;23.304;2023-06-05T08:32:02;19.33;;;16.30;;
42006;SDS011;27696;42.704;23.304;2023-06-05T08:34:29;23.35;;;17.15;;
42006;SDS011;27696;42.704;23.304;2023-06-05T08:36:55;20.90;;;16.27;;
42006;SDS011;27696;42.704;23.304;2023-06-05T08:39:23;22.30;;;20.00;;
42006;SDS011;27696;42.704;23.304;2023-06-05T08:41:52;21.23;;;18.85;;
42006;SDS011;27696;42.704;23.304;2023-06-05T08:44:20;21.48;;;16.98;;
42006;SDS011;27696;42.704;23.304;2023-06-05T08:46:46;20.80;;;18.70;;
42006;SDS011;27696;42.704;23.304;2023-06-05T08:49:12;18.80;;;16.52;;
42006;SDS011;27696;42.704;23.304;2023-06-05T08:51:42;20.20;;;18.10;;
42006;SDS011;27696;42.704;23.304;2023-06-05T08:54:07;21.90;;;16.42;;
42006;SDS011;27696;42.704;23.304;2023-06-05T08:56:39;19.33;;;17.42;;
42006;SDS011;27696;42.704;23.304;2023-06-05T08:59:05;17.13;;;15.43;;
42006;SDS011;27696;42.704;23.304;2023-06-05T09:01:31;18.67;;;16.50;;
42006;SDS011;27696;42.704;23.304;2023-06-05T09:04:03;19.10;;;15.98;;
42006;SDS011;27696;42.704;23.304;2023-06-05T09:06:28;19.30;;;17.13;;
42006;SDS011;27696;42.704;23.304;2023-06-05T09:08:56;18.15;;;16.35;;
42006;SDS011;27696;42.704;23.304;2023-06-05T09:11:25;16.75;;;15.07;;
42006;SDS011;27696;42.704;23.304;2023-06-05T09:13:52;15.95;;;14.25;;
42006;SDS011;27696;42.704;23.304;2023-06-05T09:16:20;16.02;;;14.45;;
42006;SDS011;27696;42.704;23.304;2023-06-05T09:18:52;19.08;;;15.75;;
42006;SDS011;27696;42.704;23.304;2023-06-05T09:21:27;16.73;;;14.98;;
42006;SDS011;27696;42.704;23.304;2023-06-05T09:27:00;13.88;;;12.45;;
42006;SDS011;27696;42.704;23.304;2023-06-05T09:29:30;15.38;;;13.73;;
42006;SDS011;27696;42.704;23.304;2023-06-05T09:34:40;19.25;;;17.17;;
42006;SDS011;27696;42.704;23.304;2023-06-05T09:37:07;18.73;;;16.08;;
42006;SDS011;27696;42.704;23.304;2023-06-05T09:39:34;17.40;;;15.43;;
42006;SDS011;27696;42.704;23.304;2023-06-05T09:42:00;23.77;;;18.15;;
42006;SDS011;27696;42.704;23.304;2023-06-05T09:44:27;16.83;;;13.50;;
42006;SDS011;27696;42.704;23.304;2023-06-05T09:46:57;20.13;;;18.00;;
42006;SDS011;27696;42.704;23.304;2023-06-05T09:52:03;23.30;;;18.40;;
42006;SDS011;27696;42.704;23.304;2023-06-05T09:54:29;23.63;;;17.45;;
42006;SDS011;27696;42.704;23.304;2023-06-05T09:56:59;18.75;;;16.75;;
42006;SDS011;27696;42.704;23.304;2023-06-05T09:59:29;16.77;;;14.88;;
42006;SDS011;27696;42.704;23.304;2023-06-05T10:01:56;28.75;;;15.18;;
42006;SDS011;27696;42.704;23.304;2023-06-05T10:04:26;20.33;;;14.90;;
42006;SDS011;27696;42.704;23.304;2023-06-05T10:06:54;15.73;;;11.93;;
42006;SDS011;27696;42.704;23.304;2023-06-05T10:09:25;19.40;;;13.88;;
42006;SDS011;27696;42.704;23.304;2023-06-05T10:11:51;21.08;;;15.68;;
42006;SDS011;27696;42.704;23.304;2023-06-05T10:14:17;31.77;;;28.50;;
42006;SDS011;27696;42.704;23.304;2023-06-05T10:16:49;20.55;;;18.33;;
42006;SDS011;27696;42.704;23.304;2023-06-05T10:19:16;23.02;;;20.63;;
42006;SDS011;27696;42.704;23.304;2023-06-05T10:21:46;15.27;;;11.45;;
42006;SDS011;27696;42.704;23.304;2023-06-05T10:24:13;11.63;;;10.50;;
42006;SDS011;27696;42.704;23.304;2023-06-05T10:37:27;13.70;;;10.98;;
42006;SDS011;27696;42.704;23.304;2023-06-05T10:39:58;14.02;;;12.70;;
42006;SDS011;27696;42.704;23.304;2023-06-05T10:42:25;17.45;;;11.90;;
42006;SDS011;27696;42.704;23.304;2023-06-05T10:44:51;19.55;;;14.45;;
42006;SDS011;27696;42.704;23.304;2023-06-05T10:52:42;19.08;;;12.90;;
42006;SDS011;27696;42.704;23.304;2023-06-05T10:55:08;15.73;;;11.77;;
42006;SDS011;27696;42.704;23.304;2023-06-05T11:00:31;17.65;;;13.82;;
42006;SDS011;27696;42.704;23.304;2023-06-05T11:02:57;14.35;;;10.73;;
42006;SDS011;27696;42.704;23.304;2023-06-05T11:05:23;14.05;;;12.00;;
42006;SDS011;27696;42.704;23.304;2023-06-05T11:08:14;14.02;;;12.13;;
42006;SDS011;27696;42.704;23.304;2023-06-05T11:11:25;18.58;;;15.48;;
42006;SDS011;27696;42.704;23.304;2023-06-05T11:16:31;11.05;;;9.38;;
42006;SDS011;27696;42.704;23.304;2023-06-05T11:19:39;16.58;;;14.85;;
42006;SDS011;27696;42.704;23.304;2023-06-05T11:24:34;15.18;;;9.23;;
42006;SDS011;27696;42.704;23.304;2023-06-05T11:27:03;9.88;;;8.43;;
42006;SDS011;27696;42.704;23.304;2023-06-05T11:29:30;12.90;;;9.93;;
42006;SDS011;27696;42.704;23.304;2023-06-05T11:31:57;11.63;;;9.13;;
42006;SDS011;27696;42.704;23.304;2023-06-05T11:34:22;12.85;;;10.60;;
42006;SDS011;27696;42.704;23.304;2023-06-05T11:36:47;11.77;;;9.82;;
42006;SDS011;27696;42.704;23.304;2023-06-05T11:39:14;10.98;;;7.65;;
42006;SDS011;27696;42.704;23.304;2023-06-05T11:41:46;14.40;;;10.52;;
42006;SDS011;27696;42.704;23.304;2023-06-05T11:44:15;10.20;;;8.77;;
42006;SDS011;27696;42.704;23.304;2023-06-05T11:46:42;7.75;;;6.68;;
42006;SDS011;27696;42.704;23.304;2023-06-05T11:49:29;9.82;;;8.68;;
42006;SDS011;27696;42.704;23.304;2023-06-05T11:51:55;9.32;;;8.48;;
42006;SDS011;27696;42.704;23.304;2023-06-05T11:54:24;15.10;;;7.65;;
42006;SDS011;27696;42.704;23.304;2023-06-05T11:56:50;8.77;;;8.07;;
42006;SDS011;27696;42.704;23.304;2023-06-05T11:59:21;10.02;;;8.95;;
42006;SDS011;27696;42.704;23.304;2023-06-05T12:01:47;8.95;;;6.32;;
42006;SDS011;27696;42.704;23.304;2023-06-05T12:04:14;8.75;;;7.07;;
42006;SDS011;27696;42.704;23.304;2023-06-05T12:06:40;8.50;;;7.20;;
42006;SDS011;27696;42.704;23.304;2023-06-05T12:09:07;8.15;;;7.35;;
42006;SDS011;27696;42.704;23.304;2023-06-05T12:11:36;7.47;;;6.88;;
42006;SDS011;27696;42.704;23.304;2023-06-05T12:14:03;9.93;;;7.53;;
42006;SDS011;27696;42.704;23.304;2023-06-05T12:19:12;8.88;;;6.57;;
42006;SDS011;27696;42.704;23.304;2023-06-05T12:21:39;11.02;;;8.07;;
42006;SDS011;27696;42.704;23.304;2023-06-05T12:24:04;7.50;;;6.80;;
42006;SDS011;27696;42.704;23.304;2023-06-05T12:29:22;11.90;;;7.15;;
42006;SDS011;27696;42.704;23.304;2023-06-05T12:31:48;12.32;;;9.25;;
42006;SDS011;27696;42.704;23.304;2023-06-05T12:34:14;12.43;;;10.98;;
42006;SDS011;27696;42.704;23.304;2023-06-05T12:36:41;15.15;;;13.75;;
42006;SDS011;27696;42.704;23.304;2023-06-05T12:39:17;11.80;;;9.93;;
42006;SDS011;27696;42.704;23.304;2023-06-05T12:41:42;11.38;;;8.90;;
42006;SDS011;27696;42.704;23.304;2023-06-05T12:44:09;14.88;;;10.13;;
42006;SDS011;27696;42.704;23.304;2023-06-05T12:46:35;13.10;;;11.30;;
42006;SDS011;27696;42.704;23.304;2023-06-05T12:49:01;13.18;;;11.57;;
42006;SDS011;27696;42.704;23.304;2023-06-05T12:51:27;15.75;;;12.88;;
42006;SDS011;27696;42.704;23.304;2023-06-05T12:53:56;15.73;;;11.68;;
42006;SDS011;27696;42.704;23.304;2023-06-05T12:56:25;10.80;;;7.45;;
42006;SDS011;27696;42.704;23.304;2023-06-05T12:58:52;8.40;;;6.43;;
42006;SDS011;27696;42.704;23.304;2023-06-05T13:01:19;6.38;;;5.53;;
42006;SDS011;27696;42.704;23.304;2023-06-05T13:03:48;11.50;;;6.13;;
42006;SDS011;27696;42.704;23.304;2023-06-05T13:06:13;7.03;;;6.32;;
42006;SDS011;27696;42.704;23.304;2023-06-05T13:08:39;9.80;;;8.25;;
42006;SDS011;27696;42.704;23.304;2023-06-05T13:11:04;7.57;;;5.75;;
42006;SDS011;27696;42.704;23.304;2023-06-05T13:13:30;7.97;;;7.20;;
42006;SDS011;27696;42.704;23.304;2023-06-05T13:15:55;9.93;;;8.60;;
42006;SDS011;27696;42.704;23.304;2023-06-05T13:18:21;6.55;;;5.45;;
42006;SDS011;27696;42.704;23.304;2023-06-05T13:20:46;13.32;;;10.05;;
42006;SDS011;27696;42.704;23.304;2023-06-05T13:23:11;7.70;;;5.78;;
42006;SDS011;27696;42.704;23.304;2023-06-05T13:25:37;5.95;;;5.35;;
42006;SDS011;27696;42.704;23.304;2023-06-05T13:28:04;8.55;;;5.07;;
42006;SDS011;27696;42.704;23.304;2023-06-05T13:30:31;6.93;;;5.97;;
42006;SDS011;27696;42.704;23.304;2023-06-05T13:32:57;5.47;;;4.97;;
42006;SDS011;27696;42.704;23.304;2023-06-05T13:35:22;6.07;;;5.57;;
42006;SDS011;27696;42.704;23.304;2023-06-05T13:37:48;9.32;;;5.60;;
42006;SDS011;27696;42.704;23.304;2023-06-05T13:40:14;5.72;;;5.22;;
42006;SDS011;27696;42.704;23.304;2023-06-05T13:42:40;10.68;;;6.93;;
42006;SDS011;27696;42.704;23.304;2023-06-05T13:45:06;9.60;;;7.10;;
42006;SDS011;27696;42.704;23.304;2023-06-05T13:47:32;7.55;;;6.72;;
42006;SDS011;27696;42.704;23.304;2023-06-05T13:49:57;8.05;;;5.20;;
42006;SDS011;27696;42.704;23.304;2023-06-05T13:52:23;7.53;;;5.40;;
42006;SDS011;27696;42.704;23.304;2023-06-05T13:54:48;7.10;;;5.47;;
42006;SDS011;27696;42.704;23.304;2023-06-05T13:57:13;6.60;;;5.97;;
42006;SDS011;27696;42.704;23.304;2023-06-05T13:59:39;7.78;;;6.03;;
42006;SDS011;27696;42.704;23.304;2023-06-05T14:02:05;9.38;;;6.00;;
42006;SDS011;27696;42.704;23.304;2023-06-05T14:04:30;7.20;;;5.25;;
42006;SDS011;27696;42.704;23.304;2023-06-05T14:06:56;7.15;;;5.47;;
42006;SDS011;27696;42.704;23.304;2023-06-05T14:09:23;7.07;;;5.40;;
42006;SDS011;27696;42.704;23.304;2023-06-05T14:11:48;6.80;;;6.10;;
42006;SDS011;27696;42.704;23.304;2023-06-05T14:14:14;7.22;;;6.00;;
42006;SDS011;27696;42.704;23.304;2023-06-05T14:16:39;6.38;;;5.57;;
42006;SDS011;27696;42.704;23.304;2023-06-05T14:19:05;6.63;;;5.40;;
42006;SDS011;27696;42.704;23.304;2023-06-05T14:21:30;9.98;;;5.28;;
42006;SDS011;27696;42.704;23.304;2023-06-05T14:23:55;11.32;;;6.60;;
42006;SDS011;27696;42.704;23.304;2023-06-05T14:26:21;8.93;;;5.75;;
42006;SDS011;27696;42.704;23.304;2023-06-05T14:28:47;6.32;;;5.43;;
42006;SDS011;27696;42.704;23.304;2023-06-05T14:31:12;6.30;;;5.00;;
42006;SDS011;27696;42.704;23.304;2023-06-05T14:33:38;8.75;;;5.95;;
42006;SDS011;27696;42.704;23.304;2023-06-05T14:36:04;7.80;;;5.63;;
42006;SDS011;27696;42.704;23.304;2023-06-05T14:38:30;10.30;;;6.00;;
42006;SDS011;27696;42.704;23.304;2023-06-05T14:40:55;8.88;;;6.35;;
42006;SDS011;27696;42.704;23.304;2023-06-05T14:43:22;7.18;;;5.20;;
42006;SDS011;27696;42.704;23.304;2023-06-05T14:45:48;6.95;;;5.25;;
42006;SDS011;27696;42.704;23.304;2023-06-05T14:48:13;8.25;;;5.75;;
42006;SDS011;27696;42.704;23.304;2023-06-05T14:50:39;8.02;;;6.72;;
42006;SDS011;27696;42.704;23.304;2023-06-05T14:53:04;10.75;;;7.85;;
42006;SDS011;27696;42.704;23.304;2023-06-05T14:55:30;11.40;;;10.18;;